createdAt,value
2019-02-23T00:01:48.878Z,98965.95
2019-02-23T00:04:19.220Z,98960.12
2019-02-23T00:06:49.593Z,98969.58
2019-02-23T00:09:19.817Z,98978.53
2019-02-23T00:11:50.198Z,98982.53
2019-02-23T00:14:20.531Z,98984.33
2019-02-23T00:16:51.894Z,98989.27
2019-02-23T00:19:25.074Z,98991.03
2019-02-23T00:21:54.530Z,98996.40
2019-02-23T00:24:24.740Z,99002.16
2019-02-23T00:26:55.324Z,99000.42
2019-02-23T00:29:25.662Z,99002.22
2019-02-23T00:31:55.905Z,99003.98
2019-02-23T00:34:26.145Z,99007.52
2019-02-23T00:36:56.436Z,99015.63
2019-02-23T00:39:26.686Z,99017.86
2019-02-23T00:41:56.984Z,99021.88
2019-02-23T00:44:27.224Z,99026.82
2019-02-23T00:46:59.589Z,99029.50
2019-02-23T00:49:36.309Z,99033.52
2019-02-23T00:52:01.549Z,99035.75
2019-02-23T00:54:31.861Z,99033.06
2019-02-23T00:57:02.089Z,99032.19
2019-02-23T00:59:32.410Z,99038.89
2019-02-23T01:02:02.760Z,99036.70
2019-02-23T01:04:33.046Z,99037.09
2019-02-23T01:07:03.790Z,99040.20
2019-02-23T01:09:34.455Z,99039.31
2019-02-23T01:12:04.730Z,99041.11
2019-02-23T01:14:34.937Z,99043.34
2019-02-23T01:17:07.479Z,99045.59
2019-02-23T01:19:47.322Z,99045.59
2019-02-23T01:22:09.795Z,99055.48
2019-02-23T01:24:40.045Z,99061.75
2019-02-23T01:27:10.637Z,99063.55
2019-02-23T01:29:40.910Z,99073.77
2019-02-23T01:32:11.215Z,99082.23
2019-02-23T01:34:41.479Z,99082.30
2019-02-23T01:37:11.700Z,99083.20
2019-02-23T01:39:41.962Z,99093.05
2019-02-23T01:42:12.217Z,99094.45
2019-02-23T01:44:42.546Z,99098.94
2019-02-23T01:47:12.881Z,99106.98
2019-02-23T01:49:43.143Z,99107.87
2019-02-23T01:52:13.351Z,99099.82
2019-02-23T01:54:43.597Z,99111.00
2019-02-23T01:57:13.841Z,99106.58
2019-02-23T01:59:44.138Z,99109.20
2019-02-23T02:02:17.239Z,99107.04
2019-02-23T02:04:47.545Z,99115.52
2019-02-23T02:07:17.794Z,99124.91
2019-02-23T02:09:48.012Z,99125.36
2019-02-23T02:12:19.117Z,99128.50
2019-02-23T02:14:49.461Z,99136.03
2019-02-23T02:17:20.043Z,99135.63
2019-02-23T02:19:50.236Z,99143.68
2019-02-23T02:22:20.501Z,99141.00
2019-02-23T02:24:50.722Z,99147.64
2019-02-23T02:27:20.946Z,99141.45
2019-02-23T02:29:51.249Z,99143.31
2019-02-23T02:32:21.496Z,99153.58
2019-02-23T02:34:51.709Z,99149.95
2019-02-23T02:37:21.996Z,99155.27
2019-02-23T02:39:52.242Z,99161.52
2019-02-23T02:42:22.941Z,99167.82
2019-02-23T02:44:53.244Z,99172.75
2019-02-23T02:47:23.879Z,99180.80
2019-02-23T02:49:54.123Z,99180.75
2019-02-23T02:52:25.533Z,99180.29
2019-02-23T02:54:57.500Z,99186.99
2019-02-23T02:57:27.726Z,99193.64
2019-02-23T02:59:58.043Z,99191.02
2019-02-23T03:02:28.355Z,99182.91
2019-02-23T03:04:58.717Z,99185.09
2019-02-23T03:07:29.134Z,99186.11
2019-02-23T03:09:59.414Z,99188.80
2019-02-23T03:12:29.742Z,99199.06
2019-02-23T03:15:00.011Z,99208.05
2019-02-23T03:17:30.346Z,99213.82
2019-02-23T03:20:00.680Z,99212.08
2019-02-23T03:22:33.585Z,99214.78
2019-02-23T03:25:03.797Z,99217.06
2019-02-23T03:27:34.119Z,99217.95
2019-02-23T03:30:04.589Z,99218.86
2019-02-23T03:32:35.006Z,99221.09
2019-02-23T03:35:05.446Z,99224.23
2019-02-23T03:37:35.744Z,99223.31
2019-02-23T03:40:06.757Z,99226.45
2019-02-23T03:42:36.962Z,99227.34
2019-02-23T03:45:07.188Z,99234.91
2019-02-23T03:47:37.463Z,99237.58
2019-02-23T03:50:08.248Z,99235.73
2019-02-23T03:52:38.571Z,99237.56
2019-02-23T03:55:08.853Z,99238.47
2019-02-23T03:57:39.198Z,99240.75
2019-02-23T04:00:09.853Z,99244.78
2019-02-23T04:02:40.256Z,99244.34
2019-02-23T04:05:10.535Z,99248.37
2019-02-23T04:07:40.844Z,99256.84
2019-02-23T04:10:11.163Z,99262.67
2019-02-23T04:12:41.427Z,99270.28
2019-02-23T04:15:11.657Z,99272.05
2019-02-23T04:17:41.843Z,99268.94
2019-02-23T04:20:12.066Z,99272.51
2019-02-23T04:22:42.344Z,99268.94
2019-02-23T04:25:12.601Z,99272.13
2019-02-23T04:27:45.112Z,99273.47
2019-02-23T04:30:15.384Z,99269.45
2019-02-23T04:32:45.752Z,99275.64
2019-02-23T04:35:15.969Z,99271.60
2019-02-23T04:37:46.334Z,99270.77
2019-02-23T04:40:16.581Z,99275.25
2019-02-23T04:42:46.910Z,99277.92
2019-02-23T04:45:17.197Z,99278.83
2019-02-23T04:47:47.440Z,99279.27
2019-02-23T04:50:17.785Z,99280.16
2019-02-23T04:52:48.022Z,99276.02
2019-02-23T04:55:18.267Z,99273.45
2019-02-23T04:57:50.306Z,99276.13
2019-02-23T05:00:20.557Z,99270.84
2019-02-23T05:02:50.762Z,99267.25
2019-02-23T05:05:21.055Z,99262.39
2019-02-23T05:07:51.280Z,99262.85
2019-02-23T05:10:21.591Z,99269.94
2019-02-23T05:12:51.903Z,99274.41
2019-02-23T05:15:22.164Z,99288.22
2019-02-23T05:17:52.418Z,99293.69
2019-02-23T05:20:22.609Z,99301.30
2019-02-23T05:22:52.881Z,99302.65
2019-02-23T05:25:24.214Z,99299.56
2019-02-23T05:27:54.634Z,99301.81
2019-02-23T05:30:24.885Z,99307.50
2019-02-23T05:32:55.247Z,99312.47
2019-02-23T05:35:26.484Z,99306.67
2019-02-23T05:37:58.377Z,99312.47
2019-02-23T05:40:30.377Z,99315.66
2019-02-23T05:43:01.458Z,99318.34
2019-02-23T05:45:31.807Z,99325.93
2019-02-23T05:48:02.134Z,99323.70
2019-02-23T05:50:32.413Z,99328.13
2019-02-23T05:53:02.612Z,99319.25
2019-02-23T05:55:32.856Z,99324.20
2019-02-23T05:58:03.245Z,99315.22
2019-02-23T06:00:34.026Z,99311.69
2019-02-23T06:03:05.878Z,99307.66
2019-02-23T06:05:36.327Z,99312.54
2019-02-23T06:08:06.890Z,99309.51
2019-02-23T06:10:37.197Z,99323.37
2019-02-23T06:13:07.449Z,99322.87
2019-02-23T06:15:37.643Z,99338.00
2019-02-23T06:18:09.546Z,99329.47
2019-02-23T06:20:39.916Z,99333.88
2019-02-23T06:23:10.145Z,99336.55
2019-02-23T06:25:40.330Z,99349.52
2019-02-23T06:28:10.497Z,99356.22
2019-02-23T06:30:40.819Z,99354.44
2019-02-23T06:33:11.090Z,99356.27
2019-02-23T06:35:41.438Z,99360.75
2019-02-23T06:38:12.763Z,99359.35
2019-02-23T06:40:43.061Z,99372.64
2019-02-23T06:43:13.282Z,99370.03
2019-02-23T06:45:43.543Z,99363.81
2019-02-23T06:48:13.814Z,99364.27
2019-02-23T06:50:44.153Z,99362.97
2019-02-23T06:53:14.419Z,99356.62
2019-02-23T06:55:44.761Z,99346.27
2019-02-23T06:58:15.129Z,99339.52
2019-02-23T07:00:45.420Z,99342.68
2019-02-23T07:03:15.853Z,99341.74
2019-02-23T07:05:46.168Z,99344.80
2019-02-23T07:08:16.408Z,99353.30
2019-02-23T07:10:46.705Z,99355.08
2019-02-23T07:13:16.955Z,99358.55
2019-02-23T07:15:47.244Z,99349.21
2019-02-23T07:18:17.581Z,99344.68
2019-02-23T07:20:47.865Z,99349.10
2019-02-23T07:23:18.221Z,99348.66
2019-02-23T07:25:47.473Z,99347.26
2019-02-23T07:28:16.671Z,99347.69
2019-02-23T07:30:45.912Z,99348.52
2019-02-23T07:33:23.686Z,99347.53
2019-02-23T07:35:48.488Z,99347.91
2019-02-23T07:38:19.167Z,99349.70
2019-02-23T07:40:49.450Z,99347.86
2019-02-23T07:43:19.787Z,99341.64
2019-02-23T07:45:50.146Z,99340.64
2019-02-23T07:48:20.498Z,99341.12
2019-02-23T07:50:52.600Z,99337.50
2019-02-23T07:53:23.025Z,99345.09
2019-02-23T07:55:53.363Z,99336.99
2019-02-23T07:58:23.693Z,99332.97
2019-02-23T08:00:53.905Z,99330.72
2019-02-23T08:03:24.201Z,99327.92
2019-02-23T08:05:54.511Z,99328.76
2019-02-23T08:08:24.820Z,99330.98
2019-02-23T08:10:55.119Z,99337.24
2019-02-23T08:13:25.412Z,99332.73
2019-02-23T08:15:55.775Z,99334.95
2019-02-23T08:18:26.160Z,99338.08
2019-02-23T08:20:56.451Z,99338.47
2019-02-23T08:23:27.731Z,99339.81
2019-02-23T08:25:58.036Z,99330.42
2019-02-23T08:28:28.225Z,99329.04
2019-02-23T08:30:59.627Z,99332.20
2019-02-23T08:33:29.843Z,99328.55
2019-02-23T08:36:00.871Z,99336.98
2019-02-23T08:38:31.168Z,99330.33
2019-02-23T08:41:02.331Z,99320.93
2019-02-23T08:43:33.437Z,99328.92
2019-02-23T08:46:03.735Z,99327.19
2019-02-23T08:48:33.981Z,99330.70
2019-02-23T08:51:04.286Z,99333.78
2019-02-23T08:53:34.642Z,99336.92
2019-02-23T08:56:06.960Z,99337.81
2019-02-23T08:58:37.236Z,99339.98
2019-02-23T09:01:09.109Z,99338.24
2019-02-23T09:03:39.356Z,99338.70
2019-02-23T09:06:09.686Z,99346.24
2019-02-23T09:08:39.905Z,99344.90
2019-02-23T09:11:10.276Z,99344.39
2019-02-23T09:13:40.589Z,99348.41
2019-02-23T09:16:10.872Z,99345.67
2019-02-23T09:18:41.179Z,99345.73
2019-02-23T09:21:11.490Z,99341.65
2019-02-23T09:23:41.811Z,99347.47
2019-02-23T09:26:14.994Z,99349.27
2019-02-23T09:28:46.698Z,99347.07
2019-02-23T09:31:16.921Z,99352.39
2019-02-23T09:33:47.301Z,99350.59
2019-02-23T09:36:18.443Z,99343.44
2019-02-23T09:38:48.811Z,99341.19
2019-02-23T09:41:19.097Z,99339.36
2019-02-23T09:43:50.388Z,99344.28
2019-02-23T09:46:20.730Z,99345.22
2019-02-23T09:48:51.089Z,99341.14
2019-02-23T09:51:21.440Z,99344.22
2019-02-23T09:53:51.767Z,99339.34
2019-02-23T09:56:22.396Z,99336.66
2019-02-23T09:58:52.663Z,99338.39
2019-02-23T10:01:22.950Z,99339.28
2019-02-23T10:03:53.215Z,99334.80
2019-02-23T10:06:23.713Z,99330.72
2019-02-23T10:08:54.150Z,99321.78
2019-02-23T10:11:24.471Z,99321.78
2019-02-23T10:13:54.809Z,99318.20
2019-02-23T10:16:27.224Z,99324.46
2019-02-23T10:18:57.521Z,99319.52
2019-02-23T10:21:27.833Z,99309.64
2019-02-23T10:23:58.142Z,99306.09
2019-02-23T10:26:29.517Z,99303.81
2019-02-23T10:28:59.914Z,99301.58
2019-02-23T10:31:30.435Z,99297.98
2019-02-23T10:34:00.778Z,99289.88
2019-02-23T10:36:33.438Z,99288.53
2019-02-23T10:39:04.346Z,99284.05
2019-02-23T10:41:36.206Z,99281.36
2019-02-23T10:44:06.576Z,99278.25
2019-02-23T10:46:36.836Z,99279.88
2019-02-23T10:49:07.150Z,99280.48
2019-02-23T10:51:37.530Z,99284.11
2019-02-23T10:54:07.924Z,99286.73
2019-02-23T10:56:38.265Z,99285.34
2019-02-23T10:59:08.657Z,99292.82
2019-02-23T11:01:38.843Z,99293.25
2019-02-23T11:04:09.224Z,99288.71
2019-02-23T11:06:39.505Z,99289.53
2019-02-23T11:09:13.422Z,99277.22
2019-02-23T11:11:43.725Z,99277.59
2019-02-23T11:14:14.035Z,99268.08
2019-02-23T11:16:44.497Z,99259.45
2019-02-23T11:19:14.792Z,99248.17
2019-02-23T11:21:45.115Z,99244.55
2019-02-23T11:24:15.524Z,99243.20
2019-02-23T11:26:45.838Z,99240.46
2019-02-23T11:29:16.032Z,99240.89
2019-02-23T11:31:46.329Z,99245.80
2019-02-23T11:34:16.627Z,99243.00
2019-02-23T11:36:46.803Z,99237.17
2019-02-23T11:39:17.266Z,99237.63
2019-02-23T11:41:47.470Z,99237.63
2019-02-23T11:44:17.696Z,99235.89
2019-02-23T11:47:00.026Z,99242.55
2019-02-23T11:49:20.037Z,99241.59
2019-02-23T11:51:51.635Z,99232.27
2019-02-23T11:54:21.918Z,99227.77
2019-02-23T11:56:52.237Z,99226.49
2019-02-23T11:59:22.529Z,99225.45
2019-02-23T12:01:53.691Z,99217.41
2019-02-23T12:04:24.137Z,99215.75
2019-02-23T12:06:56.260Z,99213.92
2019-02-23T12:09:26.605Z,99200.03
2019-02-23T12:11:56.953Z,99187.55
2019-02-23T12:14:27.169Z,99184.87
2019-02-23T12:16:57.426Z,99178.49
2019-02-23T12:19:27.742Z,99188.84
2019-02-23T12:21:57.965Z,99180.78
2019-02-23T12:24:28.278Z,99188.26
2019-02-23T12:26:59.635Z,99193.11
2019-02-23T12:29:29.992Z,99190.48
2019-02-23T12:32:00.213Z,99195.03
2019-02-23T12:34:31.944Z,99202.57
2019-02-23T12:37:02.207Z,99210.63
2019-02-23T12:39:32.631Z,99205.72
2019-02-23T12:42:03.242Z,99203.03
2019-02-23T12:44:33.583Z,99210.17
2019-02-23T12:47:03.880Z,99217.28
2019-02-23T12:49:34.275Z,99213.25
2019-02-23T12:52:04.569Z,99210.11
2019-02-23T12:54:36.021Z,99210.05
2019-02-23T12:57:07.417Z,99201.94
2019-02-23T12:59:37.695Z,99193.54
2019-02-23T13:02:07.980Z,99199.73
2019-02-23T13:04:38.246Z,99191.69
2019-02-23T13:07:08.543Z,99190.86
2019-02-23T13:09:43.140Z,99182.83
2019-02-23T13:12:21.123Z,99178.70
2019-02-23T13:15:05.118Z,99170.13
2019-02-23T13:18:09.106Z,99160.37
2019-02-23T13:21:11.819Z,99155.88
2019-02-23T13:24:09.521Z,99148.34
2019-02-23T13:27:14.858Z,99142.00
2019-02-23T13:30:36.837Z,99138.88
2019-02-23T13:33:56.372Z,99148.28
2019-02-23T13:37:13.931Z,99141.11
2019-02-23T13:40:24.233Z,99137.54
2019-02-23T13:43:33.147Z,99140.69
2019-02-23T13:46:29.300Z,99143.34
2019-02-23T13:49:31.511Z,99133.97
2019-02-23T13:52:38.020Z,99138.82
2019-02-23T13:55:30.068Z,99136.62
2019-02-23T13:58:14.732Z,99137.48
2019-02-23T14:01:23.681Z,99146.02
2019-02-23T14:04:23.703Z,99147.77
2019-02-23T14:07:20.816Z,99147.83
2019-02-23T14:10:40.218Z,99150.97
2019-02-23T14:13:33.258Z,99142.00
2019-02-23T14:16:44.415Z,99142.02
2019-02-23T14:19:54.752Z,99140.23
2019-02-23T14:23:07.417Z,99137.97
2019-02-23T14:26:21.488Z,99128.08
2019-02-23T14:29:16.731Z,99130.38
2019-02-23T14:32:43.025Z,99132.11
2019-02-23T14:35:52.276Z,99133.52
2019-02-23T14:39:07.652Z,99129.03
2019-02-23T14:42:07.557Z,99127.25
2019-02-23T14:44:50.530Z,99135.80
2019-02-23T14:48:10.802Z,99140.29
2019-02-23T14:51:17.121Z,99143.37
2019-02-23T14:54:18.196Z,99149.23
2019-02-23T14:57:04.946Z,99147.00
2019-02-23T14:59:55.409Z,99144.84
2019-02-23T15:03:09.292Z,99151.09
2019-02-23T15:06:05.218Z,99146.70
2019-02-23T15:09:03.923Z,99137.81
2019-02-23T15:12:20.039Z,99134.70
2019-02-23T15:15:15.969Z,99144.10
2019-02-23T15:17:57.859Z,99141.02
2019-02-23T15:20:51.812Z,99135.66
2019-02-23T15:24:12.137Z,99133.42
2019-02-23T15:27:31.824Z,99121.34
2019-02-23T15:30:42.357Z,99128.52
2019-02-23T15:33:52.883Z,99129.98
2019-02-23T15:37:03.244Z,99125.52
2019-02-23T15:40:27.015Z,99144.31
2019-02-23T15:43:22.420Z,99140.80
2019-02-23T15:46:25.189Z,99135.95
2019-02-23T15:49:29.091Z,99143.48
2019-02-23T15:52:01.765Z,99132.36
2019-02-23T15:54:32.202Z,99125.70
2019-02-23T15:57:02.698Z,99124.76
2019-02-23T15:59:33.033Z,99131.92
2019-02-23T16:02:03.273Z,99138.64
2019-02-23T16:04:33.540Z,99144.83
2019-02-23T16:07:03.740Z,99150.27
2019-02-23T16:09:34.110Z,99162.41
2019-02-23T16:12:04.406Z,99158.38
2019-02-23T16:14:34.731Z,99159.30
2019-02-23T16:17:05.055Z,99165.61
2019-02-23T16:19:35.341Z,99178.08
2019-02-23T16:22:05.612Z,99183.89
2019-02-23T16:24:35.998Z,99181.20
2019-02-23T16:27:07.351Z,99177.63
2019-02-23T16:29:38.885Z,99186.97
2019-02-23T16:32:09.386Z,99190.99
2019-02-23T16:34:39.771Z,99198.65
2019-02-23T16:37:10.037Z,99202.22
2019-02-23T16:39:40.672Z,99198.59
2019-02-23T16:42:10.935Z,99209.33
2019-02-23T16:44:41.277Z,99222.30
2019-02-23T16:47:11.522Z,99206.25
2019-02-23T16:49:41.855Z,99207.59
2019-02-23T16:52:12.087Z,99213.79
2019-02-23T16:54:43.406Z,99214.30
2019-02-23T16:57:17.291Z,99227.21
2019-02-23T16:59:46.655Z,99237.06
2019-02-23T17:02:16.929Z,99235.30
2019-02-23T17:04:53.460Z,99226.41
2019-02-23T17:07:19.152Z,99238.92
2019-02-23T17:09:49.455Z,99249.20
2019-02-23T17:12:19.716Z,99255.92
2019-02-23T17:14:49.972Z,99271.02
2019-02-23T17:17:22.246Z,99268.39
2019-02-23T17:19:52.514Z,99270.19
2019-02-23T17:22:22.806Z,99276.97
2019-02-23T17:24:53.133Z,99280.91
2019-02-23T17:27:35.517Z,99277.34
2019-02-23T17:29:55.469Z,99281.36
2019-02-23T17:32:25.753Z,99287.63
2019-02-23T17:34:56.893Z,99289.42
2019-02-23T17:37:27.259Z,99295.19
2019-02-23T17:39:57.614Z,99304.19
2019-02-23T17:42:28.413Z,99305.59
2019-02-23T17:45:00.031Z,99311.81
2019-02-23T17:47:32.384Z,99308.27
2019-02-23T17:50:02.738Z,99314.92
2019-02-23T17:52:34.748Z,99318.06
2019-02-23T17:55:05.255Z,99319.02
2019-02-23T17:57:35.488Z,99321.20
2019-02-23T18:00:06.832Z,99314.92
2019-02-23T18:02:37.270Z,99328.75
2019-02-23T18:05:07.534Z,99330.16
2019-02-23T18:07:37.883Z,99334.12
2019-02-23T18:10:08.192Z,99342.69
2019-02-23T18:12:38.510Z,99345.88
2019-02-23T18:15:08.976Z,99341.40
2019-02-23T18:17:39.294Z,99345.88
2019-02-23T18:20:10.793Z,99337.31
2019-02-23T18:22:42.097Z,99335.58
2019-02-23T18:25:13.415Z,99327.92
2019-02-23T18:27:43.876Z,99330.16
2019-02-23T18:30:15.973Z,99335.95
2019-02-23T18:32:46.280Z,99325.30
2019-02-23T18:35:16.629Z,99327.52
2019-02-23T18:37:47.001Z,99330.66
2019-02-23T18:40:17.379Z,99328.81
2019-02-23T18:42:49.174Z,99333.78
2019-02-23T18:45:19.623Z,99331.04
2019-02-23T18:47:49.951Z,99336.86
2019-02-23T18:50:21.750Z,99336.86
2019-02-23T18:52:53.232Z,99346.20
2019-02-23T18:55:24.440Z,99353.86
2019-02-23T18:57:56.183Z,99351.63
2019-02-23T19:00:28.106Z,99351.12
2019-02-23T19:02:58.457Z,99349.40
2019-02-23T19:05:28.831Z,99344.97
2019-02-23T19:08:00.749Z,99349.83
2019-02-23T19:10:31.381Z,99350.28
2019-02-23T19:13:03.171Z,99351.17
2019-02-23T19:15:33.549Z,99362.37
2019-02-23T19:18:03.801Z,99366.39
2019-02-23T19:20:35.647Z,99371.31
2019-02-23T19:23:06.541Z,99369.02
2019-02-23T19:25:36.825Z,99373.05
2019-02-23T19:28:07.200Z,99370.86
2019-02-23T19:30:37.568Z,99372.22
2019-02-23T19:33:07.899Z,99378.48
2019-02-23T19:35:38.236Z,99379.77
2019-02-23T19:38:11.263Z,99378.48
2019-02-23T19:40:42.669Z,99383.39
2019-02-23T19:43:13.029Z,99385.64
2019-02-23T19:45:43.402Z,99378.94
2019-02-23T19:48:13.760Z,99380.66
2019-02-23T19:50:47.680Z,99384.28
2019-02-23T19:53:18.964Z,99382.56
2019-02-23T19:55:49.319Z,99394.19
2019-02-23T19:58:19.854Z,99388.31
2019-02-23T20:00:50.254Z,99378.86
2019-02-23T20:03:20.625Z,99374.39
2019-02-23T20:05:51.275Z,99365.51
2019-02-23T20:08:22.792Z,99363.71
2019-02-23T20:10:53.383Z,99364.16
2019-02-23T20:13:23.718Z,99362.42
2019-02-23T20:15:56.023Z,99367.73
2019-02-23T20:18:26.323Z,99361.41
2019-02-23T20:20:57.684Z,99360.97
2019-02-23T20:23:27.978Z,99360.06
2019-02-23T20:25:58.235Z,99361.02
2019-02-23T20:28:31.250Z,99363.71
2019-02-23T20:31:01.586Z,99364.59
2019-02-23T20:33:33.046Z,99365.51
2019-02-23T20:36:03.425Z,99370.42
2019-02-23T20:38:39.907Z,99360.65
2019-02-23T20:41:12.746Z,99362.42
2019-02-23T20:43:43.121Z,99368.17
2019-02-23T20:46:13.565Z,99373.11
2019-02-23T20:48:43.844Z,99380.70
2019-02-23T20:51:14.274Z,99383.84
2019-02-23T20:53:48.569Z,99386.08
2019-02-23T20:56:18.653Z,99382.05
2019-02-23T20:58:48.986Z,99389.22
2019-02-23T21:01:19.310Z,99389.16
2019-02-23T21:03:50.334Z,99399.05
2019-02-23T21:06:22.118Z,99396.81
2019-02-23T21:08:52.624Z,99391.91
2019-02-23T21:11:23.554Z,99397.27
2019-02-23T21:13:53.853Z,99390.56
2019-02-23T21:16:24.213Z,99390.56
2019-02-23T21:18:54.597Z,99394.13
2019-02-23T21:21:24.942Z,99386.98
2019-02-23T21:23:57.581Z,99390.16
2019-02-23T21:26:27.891Z,99390.94
2019-02-23T21:28:58.249Z,99394.52
2019-02-23T21:31:28.621Z,99399.91
2019-02-23T21:34:00.063Z,99399.91
2019-02-23T21:36:30.285Z,99397.20
2019-02-23T21:39:02.182Z,99391.00
2019-02-23T21:41:34.053Z,99382.50
2019-02-23T21:44:05.394Z,99382.50
2019-02-23T21:46:35.835Z,99378.42
2019-02-23T21:49:06.069Z,99378.42
2019-02-23T21:51:36.338Z,99382.94
2019-02-23T21:54:10.190Z,99377.13
2019-02-23T21:56:38.599Z,99373.05
2019-02-23T21:59:08.939Z,99381.16
2019-02-23T22:01:39.292Z,99378.53
2019-02-23T22:04:09.647Z,99371.37
2019-02-23T22:06:39.960Z,99367.80
2019-02-23T22:09:10.249Z,99372.28
2019-02-23T22:11:44.163Z,99370.88
2019-02-23T22:14:17.477Z,99372.33
2019-02-23T22:16:47.803Z,99368.77
2019-02-23T22:19:18.065Z,99364.28
2019-02-23T22:21:50.810Z,99362.50
2019-02-23T22:24:21.346Z,99359.42
2019-02-23T22:26:52.041Z,99358.59
2019-02-23T22:29:22.271Z,99358.13
2019-02-23T22:31:52.478Z,99354.11
2019-02-23T22:34:23.759Z,99349.19
2019-02-23T22:36:54.044Z,99359.55
2019-02-23T22:39:24.306Z,99353.78
2019-02-23T22:41:54.543Z,99353.30
2019-02-23T22:44:24.811Z,99358.27
2019-02-23T22:46:55.102Z,99360.95
2019-02-23T22:49:28.060Z,99352.95
2019-02-23T22:51:58.338Z,99357.38
2019-02-23T22:54:28.543Z,99355.20
2019-02-23T22:56:58.774Z,99348.03
2019-02-23T22:59:29.009Z,99353.03
2019-02-23T23:01:59.408Z,99353.03
2019-02-23T23:04:29.721Z,99352.17
2019-02-23T23:07:01.190Z,99351.73
2019-02-23T23:09:32.467Z,99342.41
2019-02-23T23:12:02.815Z,99346.00
2019-02-23T23:14:33.065Z,99348.68
2019-02-23T23:17:03.358Z,99346.48
2019-02-23T23:19:34.995Z,99347.84
2019-02-23T23:22:05.341Z,99336.73
2019-02-23T23:24:35.563Z,99330.48
2019-02-23T23:27:06.016Z,99330.86
2019-02-23T23:29:36.308Z,99332.70
2019-02-23T23:32:07.556Z,99339.88
2019-02-23T23:34:37.849Z,99339.92
2019-02-23T23:37:08.163Z,99340.84
2019-02-23T23:39:38.438Z,99341.78
2019-02-23T23:42:08.743Z,99341.34
2019-02-23T23:44:40.433Z,99344.97
2019-02-23T23:47:10.694Z,99351.24
2019-02-23T23:49:41.024Z,99358.01
2019-02-23T23:52:11.254Z,99349.52
2019-02-23T23:54:41.529Z,99335.65
2019-02-23T23:57:11.854Z,99334.77
2019-02-23T23:59:42.200Z,99328.62
